Mount Hood Parkdale, OR (97041)

12:03 AM PDT on September 03, 2014 (GMT -0700)
Parkdale West | Change Station
CLOSE
Current Station
Personal Weather Station
Location: Mt Hood Parkdale, OR
Elevation: 1473 ft
Nearby Weather Stations

Elev 1473 ft 45.54 °N, 121.62 °W | Updated 12 seconds ago

Clear
Clear
55.7 °F
Feels Like 55.7 °F
N
2.0
Wind Variable Wind from NNE
Gusts 15.0 mph

Today
High -- | Low -- °F
--% Chance of Precip.
Yesterday
High -- | Low -- °F
Precip. -- in
6:30 AM 7:40 PM
First Quarter, 59% visible
Pressure 29.88 in
Visibility 10.0 miles
Clouds Few 5000 ft
Dew Point 44 °F
Humidity 64%
Rainfall 0.00 in
Snow Depth Not available.
UV 0 out of 12
Pollen 3.60 out of 12
Air Quality Not available.
Flu Activity Not available.
METAR KDLS 030653Z AUTO 32008G20KT 10SM FEW050 17/08 A2988 RMK AO2 SLP117 T01720078

More Conditions Fewer Conditions

Pressure 29.88 in
Visibility 10.0 miles
Clouds Few 5000 ft
Dew Point 44 °F
Humidity 64%
Rainfall 0.00 in
Snow Depth Not available.
UV 0 out of 12
Pollen 3.60 out of 12
Air Quality Not available.
Flu Activity Not available.
METAR KDLS 030653Z AUTO 32008G20KT 10SM FEW050 17/08 A2988 RMK AO2 SLP117 T01720078

More Conditions Fewer Conditions

10-Day Weather Forecast

Almanac

Astronomy

Sep. 03, 2014 Rise Set
Actual Time 6:30 AM PDT 7:40 PM PDT
Civil Twilight 5:59 AM PDT 8:10 PM PDT
Nautical Twilight 5:23 AM PDT 8:46 PM PDT
Astronomical Twilight 4:44 AM PDT 9:25 PM PDT
Moon 3:36 PM PDT 12:19 AM PDT
Length of Visible Light 14h 10m
Length of Day
13h 09m
Tomorrow will be 3m 6s shorter.
First Quarter, 59% of the Moon is Illuminated
Today
First Quarter
Sep 8
Full
Sep 15
Last Quarter
Sep 24
New
Oct 1
First Quarter

Today's Extremes

State Highs State Lows

Community

WunderPhotos

Upload Photos

1,749,888 photos uploaded!

Nearby

Snow Depth

Station Depth Elevation
Red Hill 0 in 4400 ft
Greenpoint 0 in 3200 ft
Mt. Hood Test Site 0 in 5400 ft
Blazed Alder 0 in 3650 ft
Mud Ridge 0 in 3800 ft

Earthquake Activity

City Distance Mag. Time & Date
No recent earthquake activity has been reported nearby.
Minimum magnitude displayed is 2.5.

Coastal Water Temperatures

Place Temperature
No Stations Reporting

Nearby Weather Stations